createdAt,value
2019-01-11T00:02:53.892Z,0.60
2019-01-11T00:06:59.243Z,0.70
2019-01-11T00:11:04.261Z,0.70
2019-01-11T00:15:10.285Z,0.60
2019-01-11T00:19:15.245Z,0.50
2019-01-11T00:23:20.278Z,0.70
2019-01-11T00:27:25.909Z,0.30
2019-01-11T00:31:31.108Z,0.30
2019-01-11T00:35:36.004Z,0.50
2019-01-11T00:39:41.181Z,0.30
2019-01-11T00:43:46.139Z,0.40
2019-01-11T00:47:51.157Z,0.40
2019-01-11T00:51:56.240Z,0.40
2019-01-11T00:56:01.202Z,0.60
2019-01-11T01:00:09.673Z,0.40
2019-01-11T01:04:14.620Z,0.40
2019-01-11T01:08:19.769Z,0.40
2019-01-11T01:12:24.672Z,0.20
2019-01-11T01:16:29.901Z,0.40
2019-01-11T01:20:35.077Z,0.20
2019-01-11T01:24:40.163Z,0.30
2019-01-11T01:28:45.189Z,0.10
2019-01-11T01:32:50.289Z,-0.30
2019-01-11T01:36:55.224Z,-0.40
2019-01-11T01:41:00.469Z,-0.60
2019-01-11T01:45:07.547Z,-0.40
2019-01-11T01:49:13.762Z,-0.10
2019-01-11T01:53:19.860Z,-0.40
2019-01-11T01:57:24.852Z,-0.70
2019-01-11T02:01:30.080Z,-0.80
2019-01-11T02:05:35.082Z,-1.00
2019-01-11T02:09:40.199Z,-1.10
2019-01-11T02:13:45.191Z,-1.20
2019-01-11T02:17:50.358Z,-1.40
2019-01-11T02:21:55.351Z,-1.30
2019-01-11T02:26:00.704Z,-1.20
2019-01-11T02:30:07.399Z,-1.40
2019-01-11T02:34:12.712Z,-1.30
2019-01-11T02:38:17.760Z,-1.20
2019-01-11T02:42:22.775Z,-1.20
2019-01-11T02:46:27.834Z,-1.20
2019-01-11T02:50:32.887Z,-1.60
2019-01-11T02:54:38.024Z,-1.70
2019-01-11T02:58:42.996Z,-1.80
2019-01-11T03:02:48.186Z,-1.90
2019-01-11T03:06:53.086Z,-2.00
2019-01-11T03:10:58.137Z,-2.10
2019-01-11T03:15:03.104Z,-2.20
2019-01-11T03:19:08.430Z,-2.20
2019-01-11T03:23:13.583Z,-2.40
2019-01-11T03:27:18.794Z,-2.50
2019-01-11T03:31:35.718Z,-2.70
2019-01-11T03:35:40.698Z,-2.70
2019-01-11T03:39:45.944Z,-2.80
2019-01-11T03:43:50.991Z,-2.90
2019-01-11T03:47:56.255Z,-2.50
2019-01-11T03:52:01.145Z,-2.80
2019-01-11T03:56:06.441Z,-2.90
2019-01-11T04:00:17.333Z,-2.70
2019-01-11T04:04:22.243Z,-2.80
2019-01-11T04:08:27.392Z,-2.80
2019-01-11T04:12:32.493Z,-2.50
2019-01-11T04:16:37.504Z,-2.30
2019-01-11T04:20:42.697Z,-2.60
2019-01-11T04:25:07.618Z,-2.70
2019-01-11T04:29:12.946Z,-2.70
2019-01-11T04:33:17.869Z,-2.60
2019-01-11T04:37:23.019Z,-2.90
2019-01-11T04:41:27.943Z,-3.10
2019-01-11T04:45:33.021Z,-3.20
2019-01-11T04:49:38.340Z,-3.00
2019-01-11T04:53:43.325Z,-3.20
2019-01-11T04:57:48.374Z,-3.10
2019-01-11T05:01:53.487Z,-3.00
2019-01-11T05:05:58.437Z,-3.10
2019-01-11T05:10:03.446Z,-3.10
2019-01-11T05:14:08.426Z,-3.10
2019-01-11T05:18:13.412Z,-3.20
2019-01-11T05:22:18.325Z,-3.40
2019-01-11T05:26:23.394Z,-3.40
2019-01-11T05:30:28.347Z,-3.40
2019-01-11T05:34:33.357Z,-3.40
2019-01-11T05:38:38.377Z,-3.50
2019-01-11T05:42:43.585Z,-3.80
2019-01-11T05:46:48.624Z,-3.70
2019-01-11T05:50:53.557Z,-3.90
2019-01-11T05:54:58.975Z,-3.80
2019-01-11T05:59:08.147Z,-3.90
2019-01-11T06:03:13.107Z,-4.00
2019-01-11T06:07:40.329Z,-4.00
2019-01-11T06:11:45.507Z,-3.90
2019-01-11T06:15:50.626Z,-3.90
2019-01-11T06:19:55.861Z,-3.90
2019-01-11T06:24:00.999Z,-4.20
2019-01-11T06:28:06.161Z,-4.10
2019-01-11T06:32:11.194Z,-4.10
2019-01-11T06:36:16.210Z,-4.30
2019-01-11T06:40:21.119Z,-4.30
2019-01-11T06:44:26.300Z,-4.50
2019-01-11T06:48:42.250Z,-4.50
2019-01-11T06:52:47.275Z,-4.60
2019-01-11T06:56:53.335Z,-4.60
2019-01-11T07:00:59.076Z,-4.60
2019-01-11T07:05:04.612Z,-4.50
2019-01-11T07:09:10.418Z,-4.50
2019-01-11T07:13:15.403Z,-4.60
2019-01-11T07:17:20.361Z,-4.60
2019-01-11T07:21:25.425Z,-4.70
2019-01-11T07:25:30.439Z,-4.70
2019-01-11T07:29:35.570Z,-4.70
2019-01-11T07:33:40.604Z,-4.70
2019-01-11T07:37:45.592Z,-4.70
2019-01-11T07:41:50.536Z,-4.70
2019-01-11T07:45:55.623Z,-4.70
2019-01-11T07:50:00.649Z,-4.60
2019-01-11T07:54:05.995Z,-4.60
2019-01-11T08:02:29.376Z,-4.70
2019-01-11T08:06:34.451Z,-4.60
2019-01-11T08:10:39.366Z,-4.30
2019-01-11T08:14:45.400Z,-4.10
2019-01-11T08:18:50.311Z,-4.20
2019-01-11T08:22:55.243Z,-4.10
2019-01-11T08:27:00.171Z,-4.10
2019-01-11T08:31:05.269Z,-4.00
2019-01-11T08:35:10.706Z,-3.80
2019-01-11T08:39:15.640Z,-3.70
2019-01-11T08:43:20.833Z,-3.30
2019-01-11T08:47:26.335Z,-3.00
2019-01-11T08:51:31.251Z,-2.70
2019-01-11T08:55:36.224Z,-2.70
2019-01-11T08:59:41.553Z,-2.20
2019-01-11T09:03:46.452Z,-2.00
2019-01-11T09:07:51.529Z,-1.40
2019-01-11T09:11:56.467Z,-1.10
2019-01-11T09:16:01.382Z,-0.90
2019-01-11T09:20:07.327Z,-0.50
2019-01-11T09:24:12.261Z,-0.30
2019-01-11T09:28:17.365Z,-0.40
2019-01-11T09:32:22.299Z,-0.60
2019-01-11T09:36:27.368Z,-0.70
2019-01-11T09:40:32.279Z,-0.40
2019-01-11T09:44:37.226Z,-0.50
2019-01-11T09:48:42.332Z,-0.10
2019-01-11T09:52:47.246Z,0.00
2019-01-11T09:56:52.191Z,-0.20
2019-01-11T10:00:59.295Z,0.40
2019-01-11T10:05:04.220Z,0.90
2019-01-11T10:09:09.231Z,0.80
2019-01-11T10:13:14.163Z,1.20
2019-01-11T10:17:19.158Z,1.60
2019-01-11T10:21:24.126Z,2.00
2019-01-11T10:25:29.012Z,2.50
2019-01-11T10:29:34.068Z,2.90
2019-01-11T10:33:38.981Z,3.00
2019-01-11T10:37:43.914Z,4.40
2019-01-11T10:41:49.224Z,4.90
2019-01-11T10:45:54.171Z,5.30
2019-01-11T10:49:59.080Z,5.40
2019-01-11T10:54:04.112Z,5.50
2019-01-11T10:58:09.175Z,5.70
2019-01-11T11:02:14.344Z,6.00
2019-01-11T11:06:19.256Z,5.80
2019-01-11T11:10:24.291Z,6.60
2019-01-11T11:14:29.323Z,6.90
2019-01-11T11:18:34.253Z,6.10
2019-01-11T11:22:39.301Z,7.40
2019-01-11T11:26:44.208Z,7.60
2019-01-11T11:30:51.013Z,8.90
2019-01-11T11:34:55.724Z,9.20
2019-01-11T11:39:00.753Z,9.20
2019-01-11T11:43:05.680Z,7.90
2019-01-11T11:47:10.719Z,6.80
2019-01-11T11:51:15.653Z,4.90
2019-01-11T11:55:20.562Z,3.70
2019-01-11T11:59:25.587Z,3.10
2019-01-11T12:03:30.509Z,2.40
2019-01-11T12:07:35.539Z,2.00
2019-01-11T12:11:40.473Z,1.80
2019-01-11T12:15:45.547Z,1.50
2019-01-11T12:19:50.504Z,1.50
2019-01-11T12:23:55.427Z,1.60
2019-01-11T12:28:00.390Z,1.60
2019-01-11T12:32:05.432Z,1.80
2019-01-11T12:36:10.484Z,1.80
2019-01-11T12:40:16.804Z,2.80
2019-01-11T12:44:23.349Z,4.80
2019-01-11T12:48:33.128Z,7.40
2019-01-11T12:52:41.023Z,6.80
2019-01-11T12:56:47.786Z,4.20
2019-01-11T13:01:06.504Z,3.10
2019-01-11T13:05:15.544Z,2.90
2019-01-11T13:09:22.782Z,3.10
2019-01-11T13:13:33.657Z,3.50
2019-01-11T13:17:40.065Z,3.60
2019-01-11T13:21:45.263Z,4.50
2019-01-11T13:25:51.356Z,6.00
2019-01-11T13:29:56.489Z,6.40
2019-01-11T13:34:01.392Z,5.90
2019-01-11T13:38:06.615Z,5.00
2019-01-11T13:42:12.129Z,4.10
2019-01-11T13:46:17.592Z,2.90
2019-01-11T13:50:35.667Z,2.20
2019-01-11T13:54:40.583Z,1.70
2019-01-11T13:58:45.627Z,1.50
2019-01-11T14:02:51.756Z,1.20
2019-01-11T14:06:56.763Z,1.10
2019-01-11T14:11:01.773Z,0.90
2019-01-11T14:15:07.548Z,0.80
2019-01-11T14:19:12.467Z,0.90
2019-01-11T14:23:17.555Z,0.80
2019-01-11T14:27:22.566Z,0.70
2019-01-11T14:31:27.682Z,0.70
2019-01-11T14:35:32.816Z,0.40
2019-01-11T14:39:37.773Z,0.70
2019-01-11T14:43:42.803Z,0.50
2019-01-11T14:47:47.832Z,0.40
2019-01-11T14:51:52.743Z,0.30
2019-01-11T14:55:57.979Z,0.20
2019-01-11T15:00:03.302Z,0.30
2019-01-11T15:04:08.319Z,0.20
2019-01-11T15:08:13.658Z,-0.10
2019-01-11T15:12:18.825Z,-0.30
2019-01-11T15:16:24.160Z,-0.20
2019-01-11T15:20:29.573Z,-0.20
2019-01-11T15:24:34.947Z,-0.50
2019-01-11T15:28:40.050Z,-0.60
2019-01-11T15:32:45.144Z,-1.00
2019-01-11T15:36:50.239Z,-1.30
2019-01-11T15:40:55.397Z,-1.70
2019-01-11T15:45:00.489Z,-1.60
2019-01-11T15:49:05.687Z,-1.90
2019-01-11T15:53:10.754Z,-1.90
2019-01-11T15:57:15.840Z,-2.00
2019-01-11T16:01:20.831Z,-2.20
2019-01-11T16:05:25.845Z,-2.10
2019-01-11T16:09:59.755Z,-2.20
2019-01-11T16:14:41.202Z,-2.30
2019-01-11T16:18:46.316Z,-2.60
2019-01-11T16:22:51.298Z,-2.60
2019-01-11T16:26:56.583Z,-2.70
2019-01-11T16:31:01.633Z,-2.80
2019-01-11T16:35:07.455Z,-3.10
2019-01-11T16:39:12.488Z,-3.20
2019-01-11T16:43:18.051Z,-3.20
2019-01-11T16:47:23.047Z,-3.30
2019-01-11T16:51:28.137Z,-3.60
2019-01-11T16:55:33.272Z,-3.40
2019-01-11T16:59:38.297Z,-3.10
2019-01-11T17:03:43.306Z,-2.90
2019-01-11T17:07:48.325Z,-3.40
2019-01-11T17:11:53.509Z,-3.60
2019-01-11T17:15:58.587Z,-3.50
2019-01-11T17:20:03.703Z,-3.50
2019-01-11T17:24:08.643Z,-3.60
2019-01-11T17:28:13.832Z,-3.60
2019-01-11T17:32:18.778Z,-3.70
2019-01-11T17:36:24.224Z,-4.00
2019-01-11T17:40:29.251Z,-3.90
2019-01-11T17:44:34.449Z,-4.10
2019-01-11T17:48:39.397Z,-4.20
2019-01-11T17:52:44.600Z,-4.20
2019-01-11T17:56:49.876Z,-4.40
2019-01-11T18:00:54.871Z,-4.30
2019-01-11T18:05:00.093Z,-4.50
2019-01-11T18:09:08.243Z,-4.40
2019-01-11T18:13:13.111Z,-4.40
2019-01-11T18:17:18.250Z,-4.60
2019-01-11T18:21:23.121Z,-4.40
2019-01-11T18:25:28.210Z,-4.40
2019-01-11T18:29:33.224Z,-4.60
2019-01-11T18:33:38.433Z,-4.60
2019-01-11T18:37:43.750Z,-4.70
2019-01-11T18:41:48.901Z,-4.50
2019-01-11T18:45:54.056Z,-4.40
2019-01-11T18:49:59.076Z,-4.30
2019-01-11T18:54:04.284Z,-4.60
2019-01-11T18:58:09.600Z,-4.50
2019-01-11T19:02:15.185Z,-4.50
2019-01-11T19:06:20.357Z,-4.20
2019-01-11T19:10:25.445Z,-4.20
2019-01-11T19:14:31.510Z,-4.10
2019-01-11T19:18:36.632Z,-4.20
2019-01-11T19:22:41.971Z,-4.10
2019-01-11T19:26:46.919Z,-4.20
2019-01-11T19:30:52.095Z,-4.20
2019-01-11T19:34:57.084Z,-4.10
2019-01-11T19:39:02.320Z,-4.00
2019-01-11T19:43:07.644Z,-4.00
2019-01-11T19:47:12.910Z,-3.90
2019-01-11T19:51:18.008Z,-3.90
2019-01-11T19:55:23.684Z,-3.70
2019-01-11T19:59:28.732Z,-3.80
2019-01-11T20:03:34.059Z,-3.70
2019-01-11T20:07:39.723Z,-3.80
2019-01-11T20:11:44.721Z,-3.60
2019-01-11T20:15:49.810Z,-3.70
2019-01-11T20:19:54.769Z,-3.60
2019-01-11T20:23:59.934Z,-3.60
2019-01-11T20:28:04.955Z,-3.50
2019-01-11T20:32:10.131Z,-3.60
2019-01-11T20:36:15.517Z,-3.50
2019-01-11T20:40:20.887Z,-3.40
2019-01-11T20:44:26.995Z,-3.40
2019-01-11T20:48:32.447Z,-3.40
2019-01-11T20:52:37.460Z,-3.30
2019-01-11T20:56:42.871Z,-3.30
2019-01-11T21:00:48.307Z,-3.20
2019-01-11T21:04:54.268Z,-2.80
2019-01-11T21:08:59.446Z,-2.90
2019-01-11T21:13:06.674Z,-2.80
2019-01-11T21:17:11.642Z,-2.80
2019-01-11T21:21:16.897Z,-2.70
2019-01-11T21:25:21.997Z,-2.80
2019-01-11T21:29:27.145Z,-2.50
2019-01-11T21:33:32.232Z,-2.60
2019-01-11T21:37:37.364Z,-2.60
2019-01-11T21:41:42.264Z,-2.70
2019-01-11T21:45:47.551Z,-2.30
2019-01-11T21:49:53.106Z,-2.40
2019-01-11T21:53:58.725Z,-2.40
2019-01-11T21:58:03.807Z,-2.40
2019-01-11T22:02:09.008Z,-2.40
2019-01-11T22:06:14.365Z,-2.30
2019-01-11T22:10:19.370Z,-2.20
2019-01-11T22:14:24.708Z,-2.20
2019-01-11T22:18:29.791Z,-2.10
2019-01-11T22:22:34.873Z,-2.10
2019-01-11T22:26:40.355Z,-2.00
2019-01-11T22:30:45.467Z,-2.30
2019-01-11T22:34:50.380Z,-2.10
2019-01-11T22:38:56.116Z,-2.30
2019-01-11T22:43:01.533Z,-2.10
2019-01-11T22:47:06.823Z,-2.10
2019-01-11T22:51:12.073Z,-2.00
2019-01-11T22:55:17.663Z,-2.00
2019-01-11T22:59:23.004Z,-2.20
2019-01-11T23:03:34.741Z,-2.10
2019-01-11T23:07:51.724Z,-2.30
2019-01-11T23:12:25.074Z,-2.20
2019-01-11T23:17:14.299Z,-2.00
2019-01-11T23:21:19.523Z,-2.10
2019-01-11T23:25:25.075Z,-2.00
2019-01-11T23:29:30.480Z,-1.80
2019-01-11T23:33:35.743Z,-1.90
2019-01-11T23:37:41.308Z,-1.90
2019-01-11T23:41:46.310Z,-1.90
2019-01-11T23:45:52.259Z,-1.90
2019-01-11T23:49:57.253Z,-1.70
2019-01-11T23:54:02.660Z,-1.90
2019-01-11T23:58:07.834Z,-2.00
